Time;durP1;ratioP1;P1;durP2;ratioP2;P2;SDS_P1;SDS_P2;PMS_P1;PMS_P2;Temp;Humidity;BMP_temperature;BMP_pressure;BME280_temperature;BME280_humidity;BME280_pressure;Samples;Min_cycle;Max_cycle;Signal;HPM_P1;HPM_P2
2022/01/19 00:01:44;;;;;;;4.73;3.10;;;;;;;-4.55;67.95;100401.25;1740241;81;21030;-77
2022/01/19 00:04:11;;;;;;;5.00;2.60;;;;;;;-4.55;67.94;100402.08;1766641;81;20994;-76
2022/01/19 00:06:37;;;;;;;5.13;2.23;;;;;;;-4.58;68.08;100420.73;1718589;81;20990;-80
2022/01/19 00:09:04;;;;;;;6.77;3.43;;;;;;;-4.59;68.01;100404.63;1766934;81;20943;-76
2022/01/19 00:11:30;;;;;;;2.53;1.90;;;;;;;-4.63;68.12;100416.84;1748101;81;21012;-74
2022/01/19 00:13:57;;;;;;;2.90;2.67;;;;;;;-4.69;68.32;100408.19;1754020;81;22047;-77
2022/01/19 00:16:25;;;;;;;1.63;1.60;;;;;;;-4.67;68.39;100425.96;1678167;84;20991;-78
2022/01/19 00:18:52;;;;;;;4.40;2.20;;;;;;;-4.71;68.46;100432.45;1720326;83;21046;-77
2022/01/19 00:21:18;;;;;;;4.53;2.97;;;;;;;-4.69;68.54;100447.55;1705457;82;21539;-76
2022/01/19 00:23:45;;;;;;;2.67;1.83;;;;;;;-4.71;68.68;100446.87;1677213;84;21546;-78
2022/01/19 00:26:11;;;;;;;2.57;2.47;;;;;;;-4.72;68.74;100446.52;1705226;84;21826;-76
2022/01/19 00:28:37;;;;;;;4.37;3.40;;;;;;;-4.75;68.93;100448.95;1705742;84;21599;-71
2022/01/19 00:31:03;;;;;;;2.07;1.83;;;;;;;-4.77;69.06;100454.80;1697004;82;21031;-80
2022/01/19 00:33:30;;;;;;;4.10;2.40;;;;;;;-4.77;69.15;100461.83;1725214;81;21591;-78
2022/01/19 00:35:58;;;;;;;6.23;2.53;;;;;;;-4.77;69.29;100455.27;1738855;82;21038;-82
2022/01/19 00:38:24;;;;;;;2.70;2.10;;;;;;;-4.81;69.47;100448.64;1730035;82;21127;-79
2022/01/19 00:40:51;;;;;;;3.80;2.70;;;;;;;-4.80;69.53;100447.67;1739192;81;20956;-77
2022/01/19 00:43:17;;;;;;;4.20;2.03;;;;;;;-4.82;69.67;100444.34;1703712;82;20948;-74
2022/01/19 00:45:45;;;;;;;1.93;1.83;;;;;;;-4.81;69.76;100449.47;1730450;82;21038;-76
2022/01/19 00:48:11;;;;;;;2.33;1.83;;;;;;;-4.79;69.80;100437.51;1703889;82;20987;-77
2022/01/19 00:50:37;;;;;;;3.60;2.00;;;;;;;-4.80;69.87;100455.07;1741314;81;21187;-75
2022/01/19 00:53:05;;;;;;;6.87;2.37;;;;;;;-4.85;70.10;100448.08;1753878;81;21536;-76
2022/01/19 00:55:32;;;;;;;2.67;2.43;;;;;;;-4.85;70.17;100439.73;1745724;82;21052;-76
2022/01/19 00:57:58;;;;;;;3.40;2.20;;;;;;;-4.85;70.25;100484.33;1736052;82;21126;-73
2022/01/19 01:00:27;;;;;;;2.77;2.47;;;;;;;-4.87;70.32;100458.70;1729362;83;21262;-76
2022/01/19 01:02:54;;;;;;;3.83;2.33;;;;;;;-4.88;70.46;100470.63;1715073;82;21724;-78
2022/01/19 01:05:22;;;;;;;3.63;2.50;;;;;;;-4.87;70.49;100465.25;1768455;80;21610;-81
2022/01/19 01:07:49;;;;;;;6.00;2.27;;;;;;;-4.86;70.51;100475.27;1742454;80;20938;-82
2022/01/19 01:10:18;;;;;;;3.20;2.70;;;;;;;-4.85;70.50;100476.45;1749195;81;20980;-83
2022/01/19 01:12:54;;;;;;;8.20;3.90;;;;;;;-4.82;70.51;100466.64;1731473;82;22202;-79
2022/01/19 01:15:27;;;;;;;2.93;2.70;;;;;;;-4.88;70.68;100462.27;1702751;83;21058;-82
2022/01/19 01:20:36;;;;;;;2.70;2.30;;;;;;;-4.90;70.70;100465.53;1737692;81;21101;-78
2022/01/19 01:23:04;;;;;;;2.50;2.12;;;;;;;-4.94;70.81;100465.41;1704400;83;20955;-74
2022/01/19 01:25:33;;;;;;;3.20;2.50;;;;;;;-4.94;70.94;100464.11;1737364;81;20977;-75
2022/01/19 01:27:59;;;;;;;2.87;2.57;;;;;;;-4.93;70.98;100458.38;1659485;85;21213;-75
2022/01/19 01:30:25;;;;;;;3.47;1.77;;;;;;;-4.97;71.08;100466.17;1732047;82;21324;-77
2022/01/19 01:32:52;;;;;;;2.40;2.17;;;;;;;-4.97;71.14;100468.79;1725194;83;21020;-76
2022/01/19 01:35:18;;;;;;;3.53;1.97;;;;;;;-5.02;71.21;100457.38;1738249;82;21027;-75
2022/01/19 01:37:46;;;;;;;1.80;1.70;;;;;;;-5.03;71.32;100466.69;1714328;82;21059;-75
2022/01/19 01:40:14;;;;;;;2.07;1.90;;;;;;;-5.01;71.32;100473.48;1682185;84;21116;-74
2022/01/19 01:42:42;;;;;;;2.50;1.80;;;;;;;-4.99;71.28;100467.60;1678520;84;21039;-74
2022/01/19 01:45:13;;;;;;;2.70;2.20;;;;;;;-4.97;71.31;100463.55;1705781;84;21091;-74
2022/01/19 01:47:43;;;;;;;2.33;2.20;;;;;;;-4.97;71.25;100464.37;1705616;84;21043;-77
2022/01/19 01:55:21;;;;;;;2.90;2.10;;;;;;;-4.97;71.13;100463.07;1698665;84;21008;-81
2022/01/19 01:57:48;;;;;;;3.47;1.70;;;;;;;-4.97;71.21;100458.30;1680741;84;21061;-80
2022/01/19 02:00:19;;;;;;;3.57;1.37;;;;;;;-4.99;71.23;100461.05;1712060;82;21578;-74
2022/01/19 02:02:46;;;;;;;2.87;2.10;;;;;;;-4.97;71.24;100465.69;1706332;84;20983;-78
2022/01/19 02:05:16;;;;;;;2.63;2.13;;;;;;;-4.96;71.21;100463.90;1676919;85;22790;-79
2022/01/19 02:08:06;;;;;;;2.30;1.93;;;;;;;-4.98;71.23;100464.50;1676380;83;21040;-78
2022/01/19 02:10:42;;;;;;;2.60;2.17;;;;;;;-4.98;71.28;100467.95;1678445;84;21023;-73
2022/01/19 02:23:54;;;;;;;2.87;2.20;;;;;;;-5.01;71.53;100467.40;1720007;82;21059;-73
2022/01/19 02:26:33;;;;;;;2.37;2.10;;;;;;;-5.00;71.54;100473.00;1698022;81;21053;-73
2022/01/19 02:29:03;;;;;;;4.07;2.00;;;;;;;-5.09;71.78;100465.45;1704686;84;20976;-78
2022/01/19 02:42:42;;;;;;;1.90;1.67;;;;;;;-5.02;71.89;100457.38;1632118;86;21047;-82
2022/01/19 02:50:27;;;;;;;2.73;2.53;;;;;;;-5.09;72.31;100462.82;1727357;82;21011;-76
2022/01/19 02:52:53;;;;;;;2.63;2.43;;;;;;;-5.12;72.36;100460.44;1740267;82;21006;-73
2022/01/19 02:55:19;;;;;;;2.50;1.50;;;;;;;-5.11;72.54;100469.14;1715197;83;21042;-74
2022/01/19 02:57:46;;;;;;;2.17;1.97;;;;;;;-5.14;72.68;100480.73;1693690;83;21296;-73
2022/01/19 03:08:47;;;;;;;2.47;1.90;;;;;;;-5.17;73.08;100467.03;1720366;83;20972;-70
2022/01/19 03:11:19;;;;;;;2.33;1.97;;;;;;;-5.18;73.17;100460.15;1714102;83;21547;-70
2022/01/19 03:13:47;;;;;;;2.97;1.97;;;;;;;-5.21;73.34;100463.02;1721928;83;21511;-70
2022/01/19 03:16:13;;;;;;;4.10;2.00;;;;;;;-5.25;73.52;100459.83;1696679;82;21015;-72
2022/01/19 03:18:40;;;;;;;2.20;1.77;;;;;;;-5.28;73.79;100466.66;1691607;84;21019;-75
2022/01/19 03:21:06;;;;;;;3.13;2.20;;;;;;;-5.32;73.91;100450.80;1708280;82;21042;-71
2022/01/19 03:23:33;;;;;;;3.73;2.23;;;;;;;-5.33;73.98;100452.62;1680267;83;21047;-71
2022/01/19 03:26:06;;;;;;;2.07;1.93;;;;;;;-5.31;74.05;100448.06;1700713;83;20951;-72
2022/01/19 03:28:30;;;;;;;1.60;1.43;;;;;;;-5.29;74.03;100440.92;1692947;83;21041;-72
2022/01/19 03:30:56;;;;;;;2.57;1.90;;;;;;;-5.29;74.12;100444.84;1700386;83;20972;-71
2022/01/19 03:33:23;;;;;;;3.27;1.90;;;;;;;-5.30;74.23;100437.94;1701012;83;21606;-73
2022/01/19 03:35:51;;;;;;;5.33;1.90;;;;;;;-5.30;74.32;100433.17;1720989;83;23304;-72
2022/01/19 03:38:18;;;;;;;2.57;2.13;;;;;;;-5.30;74.37;100451.05;1720123;83;20995;-72
2022/01/19 03:40:44;;;;;;;2.37;2.17;;;;;;;-5.33;74.49;100455.25;1721371;82;20973;-72
2022/01/19 03:43:11;;;;;;;2.97;1.77;;;;;;;-5.37;74.73;100446.47;1736246;82;20941;-72
2022/01/19 03:45:59;;;;;;;1.40;1.30;;;;;;;-5.40;74.81;100454.09;1747979;80;21131;-70
2022/01/19 03:51:02;;;;;;;3.50;2.27;;;;;;;-5.43;75.03;100467.94;1712863;82;20965;-70
2022/01/19 03:53:29;;;;;;;2.20;1.83;;;;;;;-5.44;75.11;100463.17;1736710;81;21201;-72
2022/01/19 03:55:57;;;;;;;3.40;3.10;;;;;;;-5.45;75.28;100461.50;1682606;84;21042;-72
2022/01/19 03:58:24;;;;;;;9.03;2.83;;;;;;;-5.45;75.29;100463.29;1672081;84;21038;-73
2022/01/19 04:00:57;;;;;;;4.13;2.07;;;;;;;-5.48;75.38;100467.02;1747377;81;23279;-72
2022/01/19 04:03:41;;;;;;;3.15;2.10;;;;;;;-5.49;75.48;100457.96;1708881;82;21008;-75
2022/01/19 04:06:01;;;;;;;4.42;2.05;;;;;;;-5.52;75.58;100454.30;1706141;82;21008;-78
2022/01/19 04:08:25;;;;;;;4.47;2.40;;;;;;;-5.53;75.71;100453.46;1740770;82;21558;-74
2022/01/19 04:10:52;;;;;;;5.67;2.30;;;;;;;-5.54;75.67;100456.20;1699219;82;21071;-72
2022/01/19 04:15:54;;;;;;;2.33;2.13;;;;;;;-5.54;75.89;100458.83;1706298;82;21608;-73
2022/01/19 04:18:20;;;;;;;2.90;2.50;;;;;;;-5.59;75.90;100459.20;1704378;83;21066;-71
2022/01/19 04:20:50;;;;;;;3.03;2.70;;;;;;;-5.65;76.06;100463.64;1730656;81;21052;-72
2022/01/19 04:23:17;;;;;;;6.63;2.80;;;;;;;-5.69;76.44;100465.33;1729193;83;21039;-73
2022/01/19 04:25:43;;;;;;;6.13;2.73;;;;;;;-5.75;76.71;100470.13;1729309;83;21178;-72
2022/01/19 04:28:10;;;;;;;3.80;2.37;;;;;;;-5.80;77.02;100469.66;1703898;83;20963;-72
2022/01/19 04:30:38;;;;;;;4.83;2.43;;;;;;;-5.79;77.06;100475.27;1730930;81;21118;-74
2022/01/19 04:33:12;;;;;;;2.50;2.07;;;;;;;-5.79;77.11;100467.41;1728854;83;21003;-74
2022/01/19 04:35:54;;;;;;;8.67;3.17;;;;;;;-5.83;77.32;100467.31;1729757;83;21090;-73
2022/01/19 04:44:12;;;;;;;5.43;2.60;;;;;;;-5.84;77.84;100473.50;1704297;82;21516;-73
2022/01/19 05:05:21;;;;;;;4.13;3.10;;;;;;;-5.90;78.82;100493.67;1670698;83;21006;-73
2022/01/19 05:07:57;;;;;;;4.57;3.00;;;;;;;-5.90;78.98;100498.91;1715487;83;20968;-74
2022/01/19 05:15:43;;;;;;;6.07;3.07;;;;;;;-5.98;79.27;100506.56;1677216;85;21532;-72
2022/01/19 05:18:12;;;;;;;5.33;2.83;;;;;;;-6.02;79.49;100507.77;1677000;85;21108;-72
2022/01/19 05:20:38;;;;;;;6.17;3.13;;;;;;;-6.05;79.76;100496.72;1660059;84;21037;-71
2022/01/19 05:23:05;;;;;;;6.13;3.07;;;;;;;-6.07;79.97;100506.00;1675326;85;21067;-70
2022/01/19 05:25:32;;;;;;;5.37;3.33;;;;;;;-6.09;80.05;100492.69;1675457;84;21007;-70
2022/01/19 05:28:00;;;;;;;4.53;3.37;;;;;;;-6.12;80.20;100503.39;1708086;82;20972;-71
2022/01/19 05:30:28;;;;;;;4.63;3.30;;;;;;;-6.17;80.43;100498.05;1748858;81;21559;-71
2022/01/19 05:32:55;;;;;;;4.67;3.13;;;;;;;-6.22;80.71;100494.97;1766394;80;20991;-71
2022/01/19 05:35:21;;;;;;;6.83;3.07;;;;;;;-6.22;80.88;100508.06;1725233;82;21020;-73
2022/01/19 05:37:59;;;;;;;4.93;3.23;;;;;;;-6.23;80.94;100509.01;1703953;82;21090;-71
2022/01/19 05:40:31;;;;;;;3.83;2.40;;;;;;;-6.22;81.10;100500.69;1705878;82;21022;-70
2022/01/19 05:42:58;;;;;;;4.10;3.03;;;;;;;-6.22;81.15;100501.98;1701156;84;21516;-69
2022/01/19 05:45:28;;;;;;;5.03;3.43;;;;;;;-6.22;81.34;100488.91;1698752;84;21568;-71
2022/01/19 05:47:57;;;;;;;6.05;3.15;;;;;;;-6.22;81.53;100500.69;1675311;84;20995;-74
2022/01/19 05:50:24;;;;;;;6.23;4.27;;;;;;;-6.24;81.64;100499.52;1697957;83;21118;-76
2022/01/19 05:52:52;;;;;;;6.43;3.57;;;;;;;-6.25;81.79;100495.70;1698659;84;21562;-76
2022/01/19 05:55:19;;;;;;;6.73;3.30;;;;;;;-6.26;81.73;100507.95;1699611;84;21153;-76
2022/01/19 05:57:45;;;;;;;3.83;2.90;;;;;;;-6.26;81.66;100501.88;1700292;83;21014;-75
2022/01/19 06:00:13;;;;;;;6.23;3.30;;;;;;;-6.25;81.62;100516.17;1700293;82;21519;-74
2022/01/19 06:02:49;;;;;;;3.93;2.90;;;;;;;-6.25;81.62;100509.62;1627277;87;21065;-76
2022/01/19 06:05:17;;;;;;;4.67;3.10;;;;;;;-6.25;81.61;100512.72;1700469;83;21099;-76
2022/01/19 06:07:48;;;;;;;6.23;3.97;;;;;;;-6.24;81.61;100517.00;1681207;83;21331;-74
2022/01/19 06:10:43;;;;;;;8.90;4.13;;;;;;;-6.21;81.69;100520.67;1676858;84;20990;-73
2022/01/19 06:13:13;;;;;;;7.20;3.65;;;;;;;-6.19;81.56;100514.34;1671263;85;21744;-76
2022/01/19 06:15:40;;;;;;;5.33;3.17;;;;;;;-6.17;81.57;100518.16;1714227;82;21180;-74
2022/01/19 06:18:07;;;;;;;6.40;3.10;;;;;;;-6.15;81.55;100512.34;1700135;83;21567;-76
2022/01/19 06:20:35;;;;;;;7.00;4.40;;;;;;;-6.14;81.51;100506.16;1699721;84;21257;-75
2022/01/19 06:23:01;;;;;;;6.53;3.57;;;;;;;-6.11;81.51;100507.20;1698668;84;21639;-76
2022/01/19 06:25:28;;;;;;;8.90;3.47;;;;;;;-6.04;81.49;100509.67;1698714;84;20969;-74
2022/01/19 06:27:55;;;;;;;5.50;3.37;;;;;;;-5.99;81.38;100511.44;1686125;83;21072;-75
2022/01/19 06:30:23;;;;;;;7.53;4.10;;;;;;;-5.89;81.38;100520.69;1722184;81;21047;-74
2022/01/19 06:32:49;;;;;;;8.93;3.70;;;;;;;-5.83;81.19;100519.70;1704309;84;21878;-74
2022/01/19 06:35:16;;;;;;;7.33;3.87;;;;;;;-5.75;81.04;100528.22;1702432;84;21114;-74
2022/01/19 06:37:47;;;;;;;8.70;4.97;;;;;;;-5.71;80.81;100529.66;1705069;83;20998;-74
2022/01/19 06:40:19;;;;;;;5.43;3.23;;;;;;;-5.63;80.70;100525.09;1705436;83;21508;-76
2022/01/19 06:42:47;;;;;;;4.80;3.40;;;;;;;-5.60;80.42;100523.05;1704307;84;21583;-73
2022/01/19 06:45:13;;;;;;;7.23;4.23;;;;;;;-5.60;80.18;100509.94;1716362;82;21274;-72
2022/01/19 06:47:40;;;;;;;7.90;4.17;;;;;;;-5.58;80.18;100496.72;1721362;83;21003;-75
2022/01/19 06:50:08;;;;;;;7.93;4.33;;;;;;;-5.54;80.08;100498.96;1715236;83;21046;-73
2022/01/19 06:52:37;;;;;;;5.50;3.40;;;;;;;-5.51;80.00;100494.77;1704991;83;21268;-72
2022/01/19 06:55:05;;;;;;;7.17;4.40;;;;;;;-5.47;80.02;100504.53;1704385;83;21480;-73
2022/01/19 06:57:34;;;;;;;8.57;4.53;;;;;;;-5.39;79.91;100507.34;1674588;85;21736;-71
2022/01/19 07:00:05;;;;;;;11.00;4.33;;;;;;;-5.36;79.73;100503.98;1685895;83;20995;-72
2022/01/19 07:02:50;;;;;;;7.00;3.77;;;;;;;-5.36;79.52;100503.98;1695310;83;21556;-72
2022/01/19 07:05:37;;;;;;;7.00;4.37;;;;;;;-5.38;79.55;100503.30;1716675;82;21091;-73
2022/01/19 07:08:05;;;;;;;6.00;3.80;;;;;;;-5.33;79.67;100495.88;1699120;83;21051;-78
2022/01/19 07:10:33;;;;;;;5.70;3.53;;;;;;;-5.27;79.62;100491.88;1716931;83;21519;-77
2022/01/19 07:13:01;;;;;;;5.23;3.50;;;;;;;-5.21;79.58;100492.69;1696766;83;20957;-78
2022/01/19 07:15:28;;;;;;;6.00;4.20;;;;;;;-5.18;79.48;100502.94;1717993;83;21125;-76
2022/01/19 07:17:55;;;;;;;7.00;4.53;;;;;;;-5.15;79.41;100517.56;1697104;83;21488;-74
2022/01/19 07:20:22;;;;;;;6.80;4.43;;;;;;;-5.12;79.40;100515.98;1697024;83;21087;-72
2022/01/19 07:22:48;;;;;;;10.63;5.43;;;;;;;-5.09;79.41;100514.44;1729739;83;21136;-72
2022/01/19 07:25:17;;;;;;;13.33;6.00;;;;;;;-5.05;79.37;100501.41;1730203;83;20956;-70
2022/01/19 07:27:43;;;;;;;10.10;6.37;;;;;;;-5.00;79.33;100493.50;1720337;82;21034;-73
2022/01/19 07:30:11;;;;;;;10.93;6.53;;;;;;;-4.91;79.29;100505.83;1729020;82;21537;-73
2022/01/19 07:32:38;;;;;;;8.00;5.10;;;;;;;-4.85;79.04;100506.62;1716373;83;21111;-74
2022/01/19 07:35:08;;;;;;;7.67;4.83;;;;;;;-4.77;78.81;100505.13;1721793;82;21514;-74
2022/01/19 07:37:34;;;;;;;11.10;5.60;;;;;;;-4.74;78.71;100499.13;1736830;82;21031;-75
2022/01/19 07:40:01;;;;;;;8.53;5.13;;;;;;;-4.69;78.61;100500.87;1712501;83;20999;-75
2022/01/19 07:42:27;;;;;;;11.77;5.87;;;;;;;-4.64;78.17;100495.22;1691306;83;21701;-74
2022/01/19 07:44:56;;;;;;;11.00;5.17;;;;;;;-4.62;78.07;100495.94;1721445;82;21130;-73
2022/01/19 07:47:27;;;;;;;7.27;4.90;;;;;;;-4.59;77.89;100485.99;1702649;83;21111;-71
2022/01/19 07:49:57;;;;;;;12.15;5.47;;;;;;;-4.56;77.85;100488.37;1689082;81;21504;-72
2022/01/19 07:52:43;;;;;;;10.07;6.20;;;;;;;-4.49;77.66;100476.35;1701975;83;21069;-72
2022/01/19 07:55:25;;;;;;;10.93;5.20;;;;;;;-4.42;77.55;100480.59;1701312;82;21073;-73
2022/01/19 07:58:05;;;;;;;15.50;6.30;;;;;;;-4.37;77.24;100480.19;1698074;84;21615;-72
2022/01/19 08:00:40;;;;;;;9.47;7.33;;;;;;;-4.28;77.19;100478.06;1697764;82;21321;-74
2022/01/19 08:03:11;;;;;;;10.25;5.92;;;;;;;-4.19;76.86;100474.63;1741428;82;21063;-73
2022/01/19 08:05:52;;;;;;;7.30;5.63;;;;;;;-4.20;76.29;100479.52;1732846;82;21019;-76
2022/01/19 08:08:19;;;;;;;10.20;5.13;;;;;;;-4.18;76.36;100470.55;1739891;81;21066;-75
2022/01/19 08:10:45;;;;;;;17.53;8.13;;;;;;;-4.13;76.25;100461.78;1735117;81;21344;-74
2022/01/19 08:13:15;;;;;;;9.63;5.63;;;;;;;-4.09;76.14;100461.85;1710568;81;21229;-73
2022/01/19 08:15:42;;;;;;;14.07;7.60;;;;;;;-4.07;75.78;100463.00;1731020;81;21540;-73
2022/01/19 08:18:09;;;;;;;13.43;6.20;;;;;;;-4.08;75.74;100471.88;1741527;81;21504;-73
2022/01/19 08:20:40;;;;;;;9.33;5.40;;;;;;;-4.07;75.60;100467.78;1732695;81;21078;-72
2022/01/19 08:23:06;;;;;;;11.20;6.53;;;;;;;-4.05;75.42;100478.16;1744615;81;20987;-71
2022/01/19 08:25:43;;;;;;;8.87;5.63;;;;;;;-4.02;75.51;100459.48;1659570;83;21219;-72
2022/01/19 08:28:10;;;;;;;9.27;5.37;;;;;;;-3.96;75.44;100468.14;1716366;83;21020;-71
2022/01/19 08:30:38;;;;;;;6.87;5.10;;;;;;;-3.89;75.28;100463.17;1758065;81;21053;-71
2022/01/19 08:33:05;;;;;;;7.67;4.93;;;;;;;-3.83;75.13;100461.28;1728404;82;21070;-74
2022/01/19 08:35:46;;;;;;;6.43;4.60;;;;;;;-3.78;74.91;100463.84;1692087;83;21070;-71
2022/01/19 08:38:18;;;;;;;6.47;4.13;;;;;;;-3.71;74.72;100459.70;1721353;82;21134;-71
2022/01/19 08:40:47;;;;;;;6.90;4.97;;;;;;;-3.67;74.55;100454.99;1729495;83;21548;-72
2022/01/19 08:43:22;;;;;;;9.67;7.43;;;;;;;-3.66;74.15;100451.41;1735241;81;21013;-71
2022/01/19 08:45:50;;;;;;;5.80;4.77;;;;;;;-3.65;74.05;100451.27;1731010;81;21000;-71
2022/01/19 08:48:19;;;;;;;7.03;3.83;;;;;;;-3.63;74.04;100447.16;1734379;82;21031;-72
2022/01/19 08:50:54;;;;;;;9.13;5.57;;;;;;;-3.58;74.09;100443.15;1721460;82;21811;-69
2022/01/19 08:53:25;;;;;;;7.37;5.97;;;;;;;-3.51;73.92;100438.17;1736575;80;21048;-70
2022/01/19 08:55:53;;;;;;;4.60;3.73;;;;;;;-3.46;73.69;100446.47;1706409;81;21010;-71
2022/01/19 08:58:20;;;;;;;9.23;4.70;;;;;;;-3.41;73.27;100447.36;1727952;81;20963;-69
2022/01/19 09:00:48;;;;;;;7.60;5.37;;;;;;;-3.37;73.04;100448.73;1711145;81;21086;-69
2022/01/19 09:03:16;;;;;;;6.83;4.60;;;;;;;-3.39;72.52;100446.23;1760462;81;21133;-73
2022/01/19 09:05:43;;;;;;;15.40;6.17;;;;;;;-3.37;72.48;100443.47;1757155;81;20988;-74
2022/01/19 09:08:09;;;;;;;9.50;6.17;;;;;;;-3.34;72.33;100443.17;1761026;80;20999;-73
2022/01/19 09:10:39;;;;;;;10.40;5.30;;;;;;;-3.29;72.47;100435.20;1734644;81;21036;-73
2022/01/19 09:13:05;;;;;;;9.30;6.07;;;;;;;-3.19;72.55;100443.89;1735830;81;21557;-73
2022/01/19 09:15:31;;;;;;;7.33;4.43;;;;;;;-3.10;72.03;100436.94;1708853;81;21033;-74
2022/01/19 09:17:59;;;;;;;11.17;6.37;;;;;;;-3.07;71.87;100436.67;1744735;80;21605;-73
2022/01/19 09:20:26;;;;;;;11.43;7.77;;;;;;;-3.00;71.82;100435.59;1726644;81;21027;-77
2022/01/19 09:22:52;;;;;;;8.63;5.80;;;;;;;-2.95;71.73;100428.92;1760674;81;21046;-69
2022/01/19 09:25:19;;;;;;;9.73;6.23;;;;;;;-2.89;71.60;100425.72;1726580;81;21043;-67
2022/01/19 09:27:46;;;;;;;7.80;5.90;;;;;;;-2.82;71.49;100416.25;1722508;83;21013;-71
2022/01/19 09:30:16;;;;;;;9.87;7.70;;;;;;;-2.75;71.27;100410.75;1730160;81;20983;-72
2022/01/19 09:32:45;;;;;;;14.93;8.43;;;;;;;-2.67;71.14;100421.85;1746603;81;21011;-72
2022/01/19 09:35:12;;;;;;;7.70;5.07;;;;;;;-2.59;71.08;100415.39;1759983;81;21566;-72
2022/01/19 09:37:39;;;;;;;10.53;5.00;;;;;;;-2.54;70.82;100413.63;1749563;81;21662;-72
2022/01/19 09:40:06;;;;;;;5.90;4.90;;;;;;;-2.50;70.54;100405.28;1744646;82;21110;-72
2022/01/19 09:42:35;;;;;;;10.43;6.13;;;;;;;-2.43;70.24;100410.77;1706596;82;20955;-72
2022/01/19 09:45:01;;;;;;;9.43;4.93;;;;;;;-2.38;70.17;100405.39;1719752;83;20983;-72
2022/01/19 09:47:27;;;;;;;9.97;4.87;;;;;;;-2.27;70.16;100399.91;1699740;83;21067;-73
2022/01/19 09:49:54;;;;;;;8.03;4.70;;;;;;;-2.18;69.37;100419.25;1706625;83;21126;-73
2022/01/19 09:52:20;;;;;;;6.60;5.40;;;;;;;-2.15;68.94;100408.41;1700058;84;21058;-73
2022/01/19 09:54:46;;;;;;;10.37;4.40;;;;;;;-2.09;68.83;100403.02;1699638;84;20994;-73
2022/01/19 09:57:12;;;;;;;7.87;4.67;;;;;;;-2.01;68.58;100393.86;1705499;83;20976;-74
2022/01/19 09:59:39;;;;;;;13.77;5.30;;;;;;;-1.91;68.38;100389.34;1702625;83;21513;-75
2022/01/19 10:02:10;;;;;;;7.40;3.90;;;;;;;-1.79;68.33;100387.64;1682346;84;21114;-74
2022/01/19 10:04:42;;;;;;;10.23;4.13;;;;;;;-1.68;67.59;100397.61;1704055;82;25949;-73
2022/01/19 10:07:22;;;;;;;7.45;3.92;;;;;;;-1.61;66.68;100399.47;1691367;83;20972;-73
2022/01/19 10:09:59;;;;;;;12.53;4.27;;;;;;;-1.58;65.95;100396.51;1709542;83;21564;-74
2022/01/19 10:18:23;;;;;;;12.93;5.13;;;;;;;-1.39;65.31;100383.11;1720224;82;21628;-73
2022/01/19 10:21:15;;;;;;;5.37;3.60;;;;;;;-1.29;64.52;100370.33;1685328;84;20978;-71
2022/01/19 10:23:48;;;;;;;7.47;3.97;;;;;;;-1.24;64.37;100377.25;1699705;83;21075;-73
2022/01/19 10:26:23;;;;;;;12.80;4.40;;;;;;;-1.19;64.14;100362.61;1700253;83;21525;-73
2022/01/19 10:29:03;;;;;;;5.90;3.93;;;;;;;-1.10;64.18;100363.47;1732282;82;21016;-74
2022/01/19 10:31:31;;;;;;;11.67;4.60;;;;;;;-1.01;63.61;100351.98;1697310;83;21224;-75
2022/01/19 10:34:21;;;;;;;13.97;4.53;;;;;;;-0.94;63.42;100355.14;1699939;83;21017;-74
2022/01/19 10:37:02;;;;;;;9.80;4.17;;;;;;;-0.87;63.23;100344.77;1709823;83;21607;-76
2022/01/19 10:39:43;;;;;;;5.83;3.60;;;;;;;-0.77;62.98;100361.80;1712996;83;21082;-79
2022/01/19 10:42:17;;;;;;;6.00;3.10;;;;;;;-0.73;62.06;100355.20;1701135;83;21000;-79
2022/01/19 10:44:55;;;;;;;8.17;4.17;;;;;;;-0.72;61.73;100352.39;1689101;84;21190;-80
2022/01/19 10:47:53;;;;;;;5.17;3.33;;;;;;;-0.71;61.53;100358.00;1716117;82;20912;-77
2022/01/19 10:50:28;;;;;;;7.03;4.27;;;;;;;-0.70;61.52;100364.95;1752880;81;20967;-75
2022/01/19 10:52:59;;;;;;;9.17;3.93;;;;;;;-0.64;61.54;100364.31;1722465;82;21056;-79
2022/01/19 10:55:44;;;;;;;15.53;4.47;;;;;;;-0.56;61.44;100354.25;1684519;82;21582;-76
2022/01/19 10:58:14;;;;;;;4.73;3.27;;;;;;;-0.49;61.27;100354.78;1704178;84;21873;-78
2022/01/19 11:00:40;;;;;;;7.50;4.40;;;;;;;-0.43;61.24;100340.06;1704413;84;21585;-77
2022/01/19 11:03:23;;;;;;;10.60;5.03;;;;;;;-0.38;61.15;100335.64;1676250;84;21016;-76
2022/01/19 11:05:55;;;;;;;8.18;4.53;;;;;;;-0.35;61.03;100344.55;1705277;84;21048;-77
2022/01/19 11:08:23;;;;;;;11.13;4.43;;;;;;;-0.32;61.13;100332.31;1703102;84;21012;-79
2022/01/19 11:10:53;;;;;;;8.07;4.73;;;;;;;-0.29;61.13;100323.59;1675767;85;21155;-73
2022/01/19 11:13:33;;;;;;;4.93;3.40;;;;;;;-0.29;61.08;100330.20;1692138;84;21025;-76
2022/01/19 11:16:01;;;;;;;9.23;5.30;;;;;;;-0.31;61.22;100322.09;1704901;83;20992;-78
2022/01/19 11:18:32;;;;;;;6.67;4.07;;;;;;;-0.31;61.46;100322.09;1683395;84;21604;-79
2022/01/19 11:21:07;;;;;;;12.00;6.40;;;;;;;-0.26;61.63;100314.49;1730234;81;21023;-78
2022/01/19 11:24:11;;;;;;;10.53;4.43;;;;;;;-0.21;61.53;100309.54;1730874;82;21573;-77
2022/01/19 11:26:40;;;;;;;7.27;4.50;;;;;;;-0.20;61.50;100312.03;1703377;82;21596;-81
2022/01/19 11:29:21;;;;;;;7.67;4.17;;;;;;;-0.19;61.65;100304.41;1737880;82;20997;-85
2022/01/19 11:31:51;;;;;;;5.57;3.53;;;;;;;-0.10;61.70;100299.97;1730607;81;21074;-83
2022/01/19 11:34:46;;;;;;;12.83;7.93;;;;;;;-0.01;61.79;100291.03;1730703;82;21172;-79
2022/01/19 11:37:13;;;;;;;11.90;4.73;;;;;;;0.12;61.89;100288.69;1737648;82;21552;-82
2022/01/19 11:40:13;;;;;;;7.40;3.83;;;;;;;0.25;61.85;100295.59;1730466;82;21548;-85
2022/01/19 11:42:41;;;;;;;12.30;4.13;;;;;;;0.32;62.04;100290.47;1732416;81;21041;-80
2022/01/19 11:45:10;;;;;;;9.70;4.97;;;;;;;0.34;62.54;100291.11;1727964;82;21024;-83
2022/01/19 11:47:38;;;;;;;7.83;4.40;;;;;;;0.33;62.88;100269.15;1649811;86;21620;-91
2022/01/19 11:50:15;;;;;;;11.93;4.10;;;;;;;0.35;63.25;100276.89;1638003;86;21536;-87
2022/01/19 11:52:47;;;;;;;5.83;3.63;;;;;;;0.34;63.42;100279.20;1621449;88;21547;-82
2022/01/19 11:55:24;;;;;;;8.03;4.20;;;;;;;0.38;63.61;100277.90;1621236;87;32718;-81
2022/01/19 11:58:15;;;;;;;7.77;3.63;;;;;;;0.36;63.67;100268.80;1696199;84;21066;-76
2022/01/19 12:00:47;;;;;;;10.87;4.73;;;;;;;0.34;63.94;100262.84;1696058;84;21089;-76
2022/01/19 12:03:22;;;;;;;8.93;4.77;;;;;;;0.35;64.10;100253.91;1695885;84;21156;-77
2022/01/19 12:05:54;;;;;;;7.50;4.77;;;;;;;0.41;64.21;100253.24;1675968;85;21036;-78
2022/01/19 12:08:38;;;;;;;8.13;4.17;;;;;;;0.47;64.30;100257.53;1674521;85;21122;-76
2022/01/19 12:11:22;;;;;;;12.90;5.50;;;;;;;0.56;64.21;100271.88;1699579;84;21513;-82
2022/01/19 12:14:20;;;;;;;11.30;4.67;;;;;;;0.63;64.21;100268.86;1680055;84;21572;-80
2022/01/19 12:17:05;;;;;;;12.10;5.50;;;;;;;0.71;64.23;100267.52;1675582;85;21182;-79
2022/01/19 12:19:41;;;;;;;13.00;5.37;;;;;;;0.85;63.98;100263.32;1703506;82;21086;-81
2022/01/19 12:22:22;;;;;;;13.97;5.87;;;;;;;0.93;63.84;100261.11;1676642;84;21085;-80
2022/01/19 12:25:00;;;;;;;9.80;4.97;;;;;;;0.95;63.77;100269.23;1649591;87;21053;-80
2022/01/19 12:27:31;;;;;;;11.17;6.37;;;;;;;0.94;63.89;100269.39;1667938;86;21058;-79
2022/01/19 12:30:13;;;;;;;16.20;6.43;;;;;;;0.92;63.99;100264.26;1621954;88;21868;-83
2022/01/19 12:32:50;;;;;;;15.93;6.83;;;;;;;0.94;64.31;100269.39;1668622;86;21534;-73
2022/01/19 12:35:35;;;;;;;11.07;6.13;;;;;;;0.94;64.82;100265.42;1668775;86;21695;-83
2022/01/19 12:38:08;;;;;;;11.60;6.53;;;;;;;0.94;65.25;100277.34;1667581;86;21094;-80
2022/01/19 12:40:43;;;;;;;13.20;6.50;;;;;;;0.95;65.83;100269.23;1695425;84;21019;-78
2022/01/19 12:43:34;;;;;;;15.23;7.27;;;;;;;0.97;66.24;100262.41;1696139;84;21176;-79
2022/01/19 12:46:05;;;;;;;9.03;4.90;;;;;;;0.97;66.67;100265.89;1680270;83;21576;-81
2022/01/19 12:48:41;;;;;;;11.93;4.83;;;;;;;0.96;67.34;100272.70;1693972;84;20940;-90
2022/01/19 12:51:33;;;;;;;7.93;5.00;;;;;;;0.88;67.92;100265.11;1710307;83;21123;-83
2022/01/19 12:54:00;;;;;;;7.27;5.10;;;;;;;0.83;68.42;100262.16;1694031;84;21029;-87
2022/01/19 12:56:26;;;;;;;10.00;4.97;;;;;;;0.78;69.09;100266.31;1686501;84;21829;-82
2022/01/19 12:58:53;;;;;;;12.60;8.13;;;;;;;0.70;69.70;100257.09;1715945;82;21588;-88
2022/01/19 13:01:19;;;;;;;7.37;5.00;;;;;;;0.63;70.19;100248.17;1744331;81;21547;-90
2022/01/19 13:03:46;;;;;;;9.03;4.70;;;;;;;0.57;70.73;100255.51;1707651;84;21012;-80
2022/01/19 13:06:15;;;;;;;9.57;4.97;;;;;;;0.52;70.99;100251.23;1708827;83;21018;-77